OSDI/DAM METAR and TAF weather

Enter ICAO airport designator
Station Type Date Time Source
OSDI METAR 2020/01/18 13:00 UTC NOAA

OSDI 181300Z 21004KT 8000 SCT030 BKN100 12/06 Q1014


Station Type Date Time Source
OSDI Decoded METAR 2020/01/18 13:00 UTC NOAA

Damascus Int. Airport, Syria (OSDI) 33-25N 036-31E 609M
Jan 18, 2020 - 08:00 AM EST / 2020.01.18 1300 UTC
Wind: from the SSW (210 degrees) at 5 MPH (4 KT):0
Visibility: 4 mile(s):0
Sky conditions: mostly cloudy
Temperature: 53 F (12 C)
Dew Point: 42 F (6 C)
Relative Humidity: 66%
Pressure (altimeter): 29.94 in. Hg (1014 hPa)
ob: OSDI 181300Z 21004KT 8000 SCT030 BKN100 12/06 Q1014
cycle: 13

Station Type Date Time Source
OSDI TAF 2020/01/18 12:03 UTC NOAA

TAF TAF OSDI 181000Z 1812/1918 26010KT 8000 FEW030 SCT100 PROB30
TEMPO 1812/1900 22015G25KT 5000 SHRA FEW025CB SCT030 BKN090

Example: see airport list